YPCC

Details ICAO YPCC (CCK)
Name Cocos Keeling Island
Region Australia
Timezone Unknown (UTC+0.0)
Plans Departing 34
Arriving 44
Stats Elevation 10 ft / 3 m (AMSL)
Location -12.191340° 96.833693°
Runways 1
Magnetic Variation 1.896° W
Sunrise 2018-05-24 23:46:16 UTC / 2018-05-24 23:46:16 Local
Sunset 2018-05-25 11:15:45 UTC / 2018-05-25 11:15:45 Local
Advertisement - Login to hide

Runways

ID Width Length Bearing (true) Bearing (mag) Surface Threshold Offset Overrun Length
15 148 ft / 45 m 8,039 ft / 2,450 m 149.38° 151.28° Asphalt 0 ft / 0 m 1,047 ft / 319 m
33 148 ft / 45 m 8,039 ft / 2,450 m 329.38° 331.28° Asphalt 0 ft / 0 m 1,020 ft / 311 m

Map

Weather


0- 5 10 15 20 25 30 35+ Temperature / ° C

Clouds and Precipitation
Forecast for 2018-05-25 12:00 UTC. Updated 17 minutes ago

Ground ~20,000 ft ~40,000 ft Winds

METAR

YPCC 250930Z AUTO 13020G31KT 2400 -RA SCT010 BKN027 OVC035 25/24 Q1009

TAF

TAF YPCC 250515Z 2506/2606 13018KT 9999 -SHRA SCT016 INTER 2506/2606 3000 SHRA BKN010

Frequencies

Unicom 118.10 MHz CTAF
Warning: Do not use this data for real-world aviation or navigation. No guarantee of current accuracy is given.